createdAt,value
2018-08-25T00:01:09.501Z,14.20
2018-08-25T00:03:37.662Z,14.40
2018-08-25T00:06:05.909Z,14.50
2018-08-25T00:08:34.074Z,14.60
2018-08-25T00:11:02.263Z,14.40
2018-08-25T00:13:30.409Z,14.40
2018-08-25T00:15:58.580Z,14.40
2018-08-25T00:18:26.741Z,14.80
2018-08-25T00:20:54.888Z,14.50
2018-08-25T00:23:23.049Z,14.40
2018-08-25T00:25:51.205Z,14.50
2018-08-25T00:28:19.349Z,14.50
2018-08-25T00:30:52.997Z,14.60
2018-08-25T00:33:21.169Z,14.60
2018-08-25T00:35:49.342Z,14.60
2018-08-25T00:38:17.508Z,14.60
2018-08-25T00:40:45.637Z,14.50
2018-08-25T00:43:13.787Z,14.40
2018-08-25T00:45:41.973Z,14.10
2018-08-25T00:48:10.134Z,14.40
2018-08-25T00:50:38.317Z,14.20
2018-08-25T00:53:06.645Z,14.10
2018-08-25T00:55:34.812Z,14.30
2018-08-25T00:58:02.961Z,14.30
2018-08-25T01:00:31.151Z,14.20
2018-08-25T01:02:59.306Z,14.00
2018-08-25T01:05:27.465Z,14.10
2018-08-25T01:07:55.616Z,14.10
2018-08-25T01:10:23.792Z,13.90
2018-08-25T01:17:47.817Z,13.80
2018-08-25T01:20:15.984Z,13.60
2018-08-25T01:22:44.142Z,13.60
2018-08-25T01:25:12.318Z,13.40
2018-08-25T01:27:40.472Z,13.40
2018-08-25T01:30:08.621Z,13.30
2018-08-25T01:32:36.824Z,13.30
2018-08-25T01:35:05.005Z,13.20
2018-08-25T01:40:01.182Z,13.20
2018-08-25T01:42:29.354Z,13.20
2018-08-25T01:44:57.517Z,13.30
2018-08-25T01:47:25.689Z,13.20
2018-08-25T01:49:53.824Z,13.10
2018-08-25T01:52:21.972Z,13.10
2018-08-25T01:54:50.113Z,13.10
2018-08-25T01:57:18.284Z,13.20
2018-08-25T01:59:46.448Z,13.10
2018-08-25T02:02:14.628Z,13.10
2018-08-25T02:04:42.784Z,13.20
2018-08-25T02:07:10.973Z,13.20
2018-08-25T02:09:39.125Z,13.20
2018-08-25T02:12:07.272Z,13.20
2018-08-25T02:14:35.436Z,13.10
2018-08-25T02:17:03.613Z,13.00
2018-08-25T02:19:31.830Z,13.10
2018-08-25T02:22:00.004Z,13.00
2018-08-25T02:24:28.180Z,12.80
2018-08-25T02:26:56.350Z,12.90
2018-08-25T02:29:24.544Z,12.90
2018-08-25T02:31:52.782Z,12.90
2018-08-25T02:34:21.064Z,12.90
2018-08-25T02:41:45.105Z,13.00
2018-08-25T02:44:13.277Z,12.90
2018-08-25T02:46:41.457Z,12.70
2018-08-25T02:49:09.628Z,12.50
2018-08-25T02:54:05.709Z,12.60
2018-08-25T02:56:33.896Z,12.50
2018-08-25T03:01:30.026Z,12.40
2018-08-25T03:03:58.179Z,12.50
2018-08-25T03:06:26.333Z,12.60
2018-08-25T03:08:54.492Z,12.30
2018-08-25T03:11:22.656Z,12.40
2018-08-25T03:13:50.935Z,12.60
2018-08-25T03:16:19.052Z,12.50
2018-08-25T03:18:47.442Z,12.40
2018-08-25T03:21:15.588Z,12.40
2018-08-25T03:23:43.725Z,12.40
2018-08-25T03:26:11.890Z,12.50
2018-08-25T03:28:40.042Z,12.80
2018-08-25T03:31:08.206Z,12.80
2018-08-25T03:33:36.348Z,12.60
2018-08-25T03:36:04.530Z,12.50
2018-08-25T03:38:32.673Z,12.60
2018-08-25T03:41:00.822Z,12.40
2018-08-25T03:43:28.961Z,12.30
2018-08-25T03:45:57.100Z,12.30
2018-08-25T03:48:25.235Z,12.40
2018-08-25T03:50:53.397Z,12.10
2018-08-25T03:53:21.530Z,12.70
2018-08-25T03:58:17.605Z,13.00
2018-08-25T04:03:13.714Z,13.10
2018-08-25T04:05:41.868Z,13.00
2018-08-25T04:08:10.008Z,13.20
2018-08-25T04:10:38.170Z,13.30
2018-08-25T04:13:06.310Z,13.20
2018-08-25T04:15:34.517Z,13.20
2018-08-25T04:18:02.690Z,13.20
2018-08-25T04:20:30.821Z,13.20
2018-08-25T04:22:58.971Z,13.00
2018-08-25T04:25:27.134Z,13.20
2018-08-25T04:27:55.298Z,12.90
2018-08-25T04:30:23.437Z,13.30
2018-08-25T04:32:51.612Z,13.20
2018-08-25T04:35:19.754Z,13.30
2018-08-25T04:37:47.905Z,13.30
2018-08-25T04:40:16.066Z,13.30
2018-08-25T04:42:44.223Z,13.30
2018-08-25T04:45:12.389Z,13.30
2018-08-25T04:50:08.465Z,13.50
2018-08-25T04:52:36.628Z,13.40
2018-08-25T04:55:05.224Z,13.40
2018-08-25T04:57:33.377Z,13.40
2018-08-25T05:00:01.576Z,13.40
2018-08-25T05:02:29.731Z,13.50
2018-08-25T05:04:57.892Z,13.50
2018-08-25T05:07:26.030Z,13.60
2018-08-25T05:09:54.158Z,13.60
2018-08-25T05:12:22.304Z,13.60
2018-08-25T05:14:50.464Z,13.60
2018-08-25T05:17:18.617Z,13.40
2018-08-25T05:19:46.765Z,13.60
2018-08-25T05:22:14.909Z,13.60
2018-08-25T05:24:43.061Z,13.50
2018-08-25T05:27:11.241Z,13.80
2018-08-25T05:34:35.267Z,13.80
2018-08-25T05:37:03.426Z,13.70
2018-08-25T05:39:31.570Z,13.80
2018-08-25T05:42:00.350Z,13.70
2018-08-25T05:44:29.246Z,13.80
2018-08-25T05:46:57.405Z,13.80
2018-08-25T05:49:25.571Z,13.80
2018-08-25T05:51:53.735Z,13.70
2018-08-25T05:54:21.993Z,13.90
2018-08-25T05:59:18.049Z,14.00
2018-08-25T06:01:46.273Z,13.70
2018-08-25T06:06:42.380Z,13.90
2018-08-25T06:09:12.289Z,14.20
2018-08-25T06:11:40.985Z,14.10
2018-08-25T06:14:09.182Z,14.30
2018-08-25T06:16:37.438Z,14.20
2018-08-25T06:21:33.529Z,14.50
2018-08-25T06:24:01.709Z,14.60
2018-08-25T06:28:57.852Z,14.90
2018-08-25T06:31:25.998Z,14.90
2018-08-25T06:33:54.413Z,15.00
2018-08-25T06:36:22.565Z,14.90
2018-08-25T06:38:50.747Z,15.20
2018-08-25T06:41:18.929Z,15.20
2018-08-25T06:43:47.089Z,15.00
2018-08-25T06:46:15.235Z,15.00
2018-08-25T06:48:43.389Z,15.00
2018-08-25T06:51:11.538Z,15.00
2018-08-25T06:53:39.721Z,15.10
2018-08-25T06:56:07.873Z,15.00
2018-08-25T06:58:36.300Z,15.30
2018-08-25T07:01:04.532Z,15.30
2018-08-25T07:03:32.682Z,15.10
2018-08-25T07:06:00.928Z,14.90
2018-08-25T07:08:29.022Z,15.20
2018-08-25T07:10:57.182Z,15.40
2018-08-25T07:13:25.314Z,15.40
2018-08-25T07:15:53.461Z,16.00
2018-08-25T07:18:21.863Z,15.40
2018-08-25T07:20:50.016Z,15.40
2018-08-25T07:23:18.418Z,15.50
2018-08-25T07:25:46.628Z,15.60
2018-08-25T07:28:14.743Z,15.60
2018-08-25T07:30:42.933Z,15.60
2018-08-25T07:33:11.061Z,15.70
2018-08-25T07:35:39.232Z,15.60
2018-08-25T07:38:07.418Z,15.60
2018-08-25T07:43:03.630Z,15.70
2018-08-25T07:45:31.792Z,15.50
2018-08-25T07:47:59.940Z,15.50
2018-08-25T07:50:28.090Z,15.60
2018-08-25T07:52:56.234Z,15.60
2018-08-25T07:55:24.369Z,15.50
2018-08-25T07:57:52.513Z,15.60
2018-08-25T08:00:20.670Z,15.50
2018-08-25T08:02:48.805Z,15.50
2018-08-25T08:05:16.989Z,15.40
2018-08-25T08:07:45.158Z,15.30
2018-08-25T08:12:41.467Z,15.20
2018-08-25T08:15:09.614Z,15.10
2018-08-25T08:17:37.987Z,15.40
2018-08-25T08:20:06.288Z,15.40
2018-08-25T08:22:34.498Z,15.30
2018-08-25T08:25:02.648Z,15.30
2018-08-25T08:27:30.794Z,15.30
2018-08-25T08:29:59.276Z,15.60
2018-08-25T08:32:28.126Z,15.40
2018-08-25T08:34:56.280Z,15.60
2018-08-25T08:37:24.422Z,15.70
2018-08-25T08:39:52.572Z,15.60
2018-08-25T08:42:20.804Z,15.70
2018-08-25T08:44:48.895Z,15.70
2018-08-25T08:47:17.103Z,15.80
2018-08-25T08:49:46.813Z,16.00
2018-08-25T08:52:13.451Z,15.90
2018-08-25T08:54:41.610Z,15.90
2018-08-25T08:57:09.765Z,16.20
2018-08-25T08:59:37.914Z,16.30
2018-08-25T09:02:06.439Z,16.40
2018-08-25T09:04:34.593Z,16.40
2018-08-25T09:07:02.771Z,16.50
2018-08-25T09:09:30.893Z,16.50
2018-08-25T09:11:59.058Z,16.70
2018-08-25T09:14:27.446Z,16.80
2018-08-25T09:16:55.822Z,16.50
2018-08-25T09:19:24.002Z,16.50
2018-08-25T09:21:52.106Z,16.60
2018-08-25T09:24:21.126Z,17.10
2018-08-25T09:26:49.362Z,17.00
2018-08-25T09:39:12.214Z,17.00
2018-08-25T09:41:40.746Z,16.30
2018-08-25T09:46:36.792Z,16.50
2018-08-25T09:51:32.897Z,16.70
2018-08-25T09:58:58.391Z,16.50
2018-08-25T10:01:30.102Z,16.40
2018-08-25T10:03:58.581Z,16.40
2018-08-25T10:06:26.753Z,16.40
2018-08-25T10:08:54.984Z,16.70
2018-08-25T10:11:23.497Z,16.60
2018-08-25T10:13:51.654Z,16.40
2018-08-25T10:16:19.839Z,16.30
2018-08-25T10:18:47.971Z,16.20
2018-08-25T10:21:16.136Z,16.10
2018-08-25T10:23:44.328Z,16.30
2018-08-25T10:26:12.467Z,16.20
2018-08-25T10:28:40.624Z,16.30
2018-08-25T10:31:08.784Z,16.20
2018-08-25T10:33:36.947Z,16.00
2018-08-25T10:36:05.229Z,15.70
2018-08-25T10:38:33.391Z,15.80
2018-08-25T10:41:01.558Z,15.90
2018-08-25T10:43:29.706Z,15.90
2018-08-25T10:45:57.865Z,15.90
2018-08-25T10:48:26.050Z,15.90
2018-08-25T10:53:22.181Z,15.70
2018-08-25T10:55:50.330Z,15.70
2018-08-25T11:00:46.600Z,15.10
2018-08-25T11:03:14.546Z,15.20
2018-08-25T11:05:42.744Z,15.20
2018-08-25T11:08:10.917Z,15.10
2018-08-25T11:10:39.047Z,15.10
2018-08-25T11:13:07.261Z,15.10
2018-08-25T11:15:35.402Z,15.10
2018-08-25T11:18:03.552Z,15.10
2018-08-25T11:20:31.854Z,15.10
2018-08-25T11:25:28.045Z,15.10
2018-08-25T11:32:52.033Z,14.70
2018-08-25T11:35:20.165Z,14.50
2018-08-25T11:37:48.413Z,14.40
2018-08-25T11:42:44.357Z,14.30
2018-08-25T11:45:12.543Z,14.40
2018-08-25T11:47:40.680Z,14.20
2018-08-25T11:50:08.838Z,14.30
2018-08-25T11:52:37.005Z,14.20
2018-08-25T11:55:05.423Z,13.90
2018-08-25T11:57:33.557Z,14.00
2018-08-25T12:00:01.695Z,14.10
2018-08-25T12:02:29.841Z,14.10
2018-08-25T12:04:58.037Z,14.10
2018-08-25T12:07:26.166Z,14.60
2018-08-25T12:09:54.290Z,14.60
2018-08-25T12:12:22.433Z,14.90
2018-08-25T12:14:50.601Z,14.80
2018-08-25T12:17:18.776Z,15.10
2018-08-25T12:19:46.925Z,15.00
2018-08-25T12:22:15.065Z,15.20
2018-08-25T12:24:43.200Z,15.00
2018-08-25T12:27:11.707Z,15.10
2018-08-25T12:32:07.841Z,15.10
2018-08-25T12:34:35.989Z,15.10
2018-08-25T12:37:04.122Z,15.40
2018-08-25T12:39:32.270Z,15.30
2018-08-25T12:42:00.421Z,15.30
2018-08-25T12:44:28.547Z,15.00
2018-08-25T12:49:24.629Z,15.00
2018-08-25T12:54:20.714Z,15.00
2018-08-25T12:56:48.861Z,15.30
2018-08-25T12:59:17.030Z,15.00
2018-08-25T13:01:45.277Z,15.00
2018-08-25T13:04:13.349Z,15.30
2018-08-25T13:09:10.841Z,15.30
2018-08-25T13:14:07.291Z,15.20
2018-08-25T13:16:35.454Z,15.20
2018-08-25T13:19:03.682Z,15.20
2018-08-25T13:21:31.805Z,15.30
2018-08-25T13:23:59.965Z,15.60
2018-08-25T13:26:28.134Z,15.60
2018-08-25T13:28:56.440Z,15.80
2018-08-25T13:31:24.603Z,15.50
2018-08-25T13:33:52.744Z,15.60
2018-08-25T13:38:48.784Z,15.90
2018-08-25T13:41:16.938Z,16.30
2018-08-25T13:43:45.079Z,16.50
2018-08-25T13:46:13.221Z,16.50
2018-08-25T13:48:41.400Z,16.70
2018-08-25T13:51:09.634Z,16.80
2018-08-25T13:53:37.685Z,16.80
2018-08-25T13:56:05.824Z,16.50
2018-08-25T14:01:01.865Z,16.10
2018-08-25T14:03:29.997Z,15.90
2018-08-25T14:05:58.124Z,16.30
2018-08-25T14:08:26.465Z,16.30
2018-08-25T14:10:54.531Z,16.10
2018-08-25T14:13:22.703Z,16.00
2018-08-25T14:15:50.898Z,16.00
2018-08-25T14:18:18.985Z,15.90
2018-08-25T14:20:47.144Z,16.10
2018-08-25T14:23:15.289Z,15.80
2018-08-25T14:25:43.445Z,15.70
2018-08-25T14:28:11.591Z,15.60
2018-08-25T14:30:39.708Z,15.60
2018-08-25T14:33:07.997Z,15.00
2018-08-25T14:35:36.184Z,14.70
2018-08-25T14:38:04.768Z,14.70
2018-08-25T14:40:32.925Z,14.70
2018-08-25T14:43:01.303Z,14.30
2018-08-25T14:45:30.124Z,14.30
2018-08-25T14:47:58.844Z,15.00
2018-08-25T14:50:26.969Z,15.00
2018-08-25T14:52:55.120Z,15.10
2018-08-25T14:55:23.314Z,15.40
2018-08-25T14:57:51.465Z,15.60
2018-08-25T15:00:19.668Z,15.70
2018-08-25T15:02:47.829Z,16.00
2018-08-25T15:05:15.994Z,16.30
2018-08-25T15:07:44.149Z,16.20
2018-08-25T15:12:40.218Z,16.30
2018-08-25T15:15:08.375Z,16.70
2018-08-25T15:17:36.549Z,16.80
2018-08-25T15:20:04.967Z,16.90
2018-08-25T15:22:33.097Z,16.90
2018-08-25T15:25:01.266Z,16.60
2018-08-25T15:27:29.408Z,16.60
2018-08-25T15:29:57.564Z,16.70
2018-08-25T15:34:53.665Z,16.90
2018-08-25T15:37:21.815Z,16.20
2018-08-25T15:39:49.938Z,16.40
2018-08-25T15:42:18.082Z,16.30
2018-08-25T15:44:46.253Z,16.20
2018-08-25T15:47:14.406Z,16.40
2018-08-25T15:49:42.571Z,16.00
2018-08-25T15:52:10.787Z,15.90
2018-08-25T15:54:38.874Z,16.30
2018-08-25T15:59:35.297Z,16.40
2018-08-25T16:02:03.685Z,16.40
2018-08-25T16:04:31.824Z,16.30
2018-08-25T16:09:28.124Z,16.30
2018-08-25T16:14:24.200Z,16.30
2018-08-25T16:16:52.354Z,16.20
2018-08-25T16:24:16.281Z,15.90
2018-08-25T16:26:44.445Z,15.90
2018-08-25T16:29:12.606Z,15.90
2018-08-25T16:31:40.934Z,16.00
2018-08-25T16:36:37.748Z,15.70
2018-08-25T16:39:06.438Z,15.90
2018-08-25T16:41:34.571Z,16.00
2018-08-25T16:44:02.730Z,15.90
2018-08-25T16:46:30.873Z,15.90
2018-08-25T16:48:59.073Z,15.90
2018-08-25T16:51:27.236Z,15.90
2018-08-25T16:56:23.273Z,15.80
2018-08-25T16:58:51.429Z,15.70
2018-08-25T17:01:19.581Z,15.50
2018-08-25T17:03:47.725Z,15.80
2018-08-25T17:06:15.862Z,15.60
2018-08-25T17:08:44.030Z,15.90
2018-08-25T17:11:12.139Z,15.60
2018-08-25T17:16:08.164Z,15.50
2018-08-25T17:18:36.302Z,15.30
2018-08-25T17:21:04.506Z,15.20
2018-08-25T17:23:32.642Z,15.50
2018-08-25T17:26:00.804Z,15.70
2018-08-25T17:28:29.244Z,15.80
2018-08-25T17:33:25.637Z,15.50
2018-08-25T17:35:53.818Z,15.10
2018-08-25T17:38:21.997Z,15.50
2018-08-25T17:40:50.194Z,15.50
2018-08-25T17:43:18.380Z,15.50
2018-08-25T17:45:46.522Z,15.40
2018-08-25T17:48:14.693Z,15.30
2018-08-25T17:50:42.844Z,15.20
2018-08-25T17:53:11.125Z,15.40
2018-08-25T17:55:39.244Z,15.40
2018-08-25T17:58:07.486Z,15.30
2018-08-25T18:00:35.608Z,15.30
2018-08-25T18:03:03.797Z,15.00
2018-08-25T18:05:31.935Z,15.10
2018-08-25T18:08:00.077Z,15.10
2018-08-25T18:10:28.276Z,14.60
2018-08-25T18:12:56.517Z,14.90
2018-08-25T18:15:24.694Z,14.90
2018-08-25T18:17:52.868Z,14.80
2018-08-25T18:20:21.027Z,14.50
2018-08-25T18:25:17.113Z,14.60
2018-08-25T18:27:45.237Z,14.30
2018-08-25T18:30:13.429Z,14.00
2018-08-25T18:32:41.546Z,14.00
2018-08-25T18:40:05.592Z,13.80
2018-08-25T18:42:33.749Z,13.80
2018-08-25T18:47:30.656Z,13.30
2018-08-25T18:49:58.796Z,13.20
2018-08-25T18:52:26.933Z,13.00
2018-08-25T18:54:55.170Z,12.70
2018-08-25T18:57:23.272Z,13.10
2018-08-25T18:59:51.413Z,13.00
2018-08-25T19:02:19.628Z,12.50
2018-08-25T19:04:47.734Z,12.80
2018-08-25T19:07:15.905Z,12.70
2018-08-25T19:09:44.054Z,12.70
2018-08-25T19:14:40.152Z,12.40
2018-08-25T19:19:36.274Z,12.70
2018-08-25T19:29:28.160Z,12.80
2018-08-25T19:31:56.345Z,12.50
2018-08-25T19:34:24.529Z,12.50
2018-08-25T19:44:16.793Z,12.90
2018-08-25T19:46:44.971Z,12.20
2018-08-25T19:56:38.454Z,11.80
2018-08-25T19:59:06.602Z,12.10
2018-08-25T20:01:34.743Z,11.60
2018-08-25T20:06:30.920Z,11.40
2018-08-25T20:08:59.065Z,11.30
2018-08-25T20:11:27.222Z,11.20
2018-08-25T20:13:55.420Z,11.20
2018-08-25T20:16:23.653Z,10.80
2018-08-25T20:18:51.798Z,11.00
2018-08-25T20:21:19.954Z,11.60
2018-08-25T20:23:48.121Z,10.60
2018-08-25T20:26:16.255Z,10.90
2018-08-25T20:28:44.393Z,10.90
2018-08-25T20:31:12.533Z,10.80
2018-08-25T20:33:40.676Z,10.80
2018-08-25T20:36:08.862Z,10.70
2018-08-25T20:38:37.096Z,10.50
2018-08-25T20:41:05.261Z,10.60
2018-08-25T20:43:33.392Z,10.70
2018-08-25T20:46:01.652Z,10.60
2018-08-25T20:48:29.690Z,10.10
2018-08-25T20:50:57.851Z,10.70
2018-08-25T21:03:17.996Z,10.20
2018-08-25T21:05:46.136Z,10.60
2018-08-25T21:08:14.293Z,10.30
2018-08-25T21:10:42.477Z,10.10
2018-08-25T21:13:10.630Z,10.10
2018-08-25T21:15:38.773Z,10.00
2018-08-25T21:18:06.904Z,9.90
2018-08-25T21:20:35.030Z,9.90
2018-08-25T21:23:03.177Z,9.70
2018-08-25T21:25:31.328Z,9.90
2018-08-25T21:27:59.480Z,10.00
2018-08-25T21:30:27.647Z,10.00
2018-08-25T21:32:55.817Z,9.80
2018-08-25T21:35:24.013Z,9.80
2018-08-25T21:37:52.102Z,10.20
2018-08-25T21:40:20.281Z,9.90
2018-08-25T21:42:48.477Z,10.00
2018-08-25T21:45:16.688Z,9.90
2018-08-25T21:50:13.085Z,9.60
2018-08-25T21:52:41.258Z,9.90
2018-08-25T21:57:37.349Z,10.30
2018-08-25T22:00:06.436Z,10.80
2018-08-25T22:02:34.586Z,10.10
2018-08-25T22:05:02.721Z,10.20
2018-08-25T22:07:30.861Z,10.10
2018-08-25T22:09:59.005Z,10.00
2018-08-25T22:12:27.166Z,10.00
2018-08-25T22:17:23.212Z,9.90
2018-08-25T22:19:51.343Z,10.20
2018-08-25T22:22:19.473Z,10.40
2018-08-25T22:24:47.641Z,9.90
2018-08-25T22:29:43.684Z,10.00
2018-08-25T22:32:11.834Z,9.60
2018-08-25T22:34:40.009Z,9.90
2018-08-25T22:37:08.194Z,9.90
2018-08-25T22:42:04.265Z,10.00
2018-08-25T22:44:32.406Z,10.00
2018-08-25T22:47:00.557Z,10.00
2018-08-25T22:49:28.706Z,10.00
2018-08-25T22:51:56.860Z,10.10
2018-08-25T22:54:24.987Z,9.90
2018-08-25T22:56:53.148Z,9.70
2018-08-25T22:59:21.319Z,10.00
2018-08-25T23:01:49.441Z,10.00
2018-08-25T23:04:17.596Z,9.90
2018-08-25T23:06:45.764Z,9.90
2018-08-25T23:09:13.924Z,9.50
2018-08-25T23:11:42.060Z,9.80
2018-08-25T23:14:10.209Z,9.70
2018-08-25T23:16:38.359Z,9.60
2018-08-25T23:19:06.522Z,9.70
2018-08-25T23:21:34.693Z,9.70
2018-08-25T23:24:02.865Z,9.60
2018-08-25T23:26:31.021Z,9.50
2018-08-25T23:28:59.180Z,9.50
2018-08-25T23:31:27.363Z,9.50
2018-08-25T23:33:55.544Z,9.20
2018-08-25T23:36:23.748Z,9.40
2018-08-25T23:38:51.921Z,9.20
2018-08-25T23:41:20.037Z,8.90
2018-08-25T23:43:48.181Z,9.10
2018-08-25T23:46:16.325Z,9.30
2018-08-25T23:48:44.445Z,9.20
2018-08-25T23:51:12.616Z,9.20
2018-08-25T23:53:40.774Z,9.10
2018-08-25T23:56:08.922Z,9.30
2018-08-25T23:58:37.042Z,9.10
